Terminal Aerodrome Forecast
Issued by NWS

Home | Current Version | Previous Version | Text Only | Print | Product List | Glossary On
Versions: 1 2 3 4 5 6 7 8 9 10 11 12 13 14 15 16 17 18 19
000
FTUS45 KREV 262300
TAFCXP
TAF
KCXP 262320Z 2700/2724 34012KT P6SM SCT070 BKN180
     FM270300 VRB03KT P6SM BKN070 BKN140
     FM272100 28010G18KT P6SM VCSH BKN080 BKN140=

USA.gov is the U.S. government's official web portal to all federal, state and local government web resources and services.